sensor_id;sensor_type;location;lat;lon;timestamp;pressure;altitude;pressure_sealevel;temperature;humidity
48386;BME280;34644;47.964;7.982;2024-01-25T00:02:56;97929.03;;;16.45;54.68
48386;BME280;34644;47.964;7.982;2024-01-25T00:09:56;97948.44;;;16.45;54.77
48386;BME280;34644;47.964;7.982;2024-01-25T00:16:57;97941.28;;;16.46;54.87
48386;BME280;34644;47.964;7.982;2024-01-25T00:23:58;97947.97;;;16.49;54.91
48386;BME280;34644;47.964;7.982;2024-01-25T00:30:58;97948.78;;;16.49;55.00
48386;BME280;34644;47.964;7.982;2024-01-25T00:37:58;97948.78;;;16.49;55.09
48386;BME280;34644;47.964;7.982;2024-01-25T00:45:00;97943.22;;;16.51;55.14
48386;BME280;34644;47.964;7.982;2024-01-25T00:52:00;97943.47;;;16.49;55.10
48386;BME280;34644;47.964;7.982;2024-01-25T00:59:02;97946.13;;;16.49;55.15
48386;BME280;34644;47.964;7.982;2024-01-25T01:06:03;97942.41;;;16.50;55.14
48386;BME280;34644;47.964;7.982;2024-01-25T01:13:03;97941.38;;;16.51;55.31
48386;BME280;34644;47.964;7.982;2024-01-25T01:20:03;97938.72;;;16.51;55.38
48386;BME280;34644;47.964;7.982;2024-01-25T01:27:04;97941.38;;;16.51;55.37
48386;BME280;34644;47.964;7.982;2024-01-25T01:34:05;97944.84;;;16.52;55.46
48386;BME280;34644;47.964;7.982;2024-01-25T01:41:05;97944.84;;;16.52;55.37
48386;BME280;34644;47.964;7.982;2024-01-25T01:48:05;97932.34;;;16.52;55.37
48386;BME280;34644;47.964;7.982;2024-01-25T01:55:06;97941.94;;;16.53;55.34
48386;BME280;34644;47.964;7.982;2024-01-25T02:02:08;97929.66;;;16.52;55.57
48386;BME280;34644;47.964;7.982;2024-01-25T02:09:08;97940.06;;;16.54;55.41
48386;BME280;34644;47.964;7.982;2024-01-25T02:16:10;97932.91;;;16.54;55.52
48386;BME280;34644;47.964;7.982;2024-01-25T02:23:10;97921.22;;;16.55;55.40
48386;BME280;34644;47.964;7.982;2024-01-25T02:30:10;97912.19;;;16.56;55.38
48386;BME280;34644;47.964;7.982;2024-01-25T02:37:11;97919.38;;;16.56;55.72
48386;BME280;34644;47.964;7.982;2024-01-25T03:00:20;97897.84;;;16.57;55.62
48386;BME280;34644;47.964;7.982;2024-01-25T03:07:21;97885.56;;;16.56;55.72
48386;BME280;34644;47.964;7.982;2024-01-25T03:14:21;97910.09;;;16.58;55.54
48386;BME280;34644;47.964;7.982;2024-01-25T03:21:21;97907.44;;;16.58;55.63
48386;BME280;34644;47.964;7.982;2024-01-25T03:28:22;97897.59;;;16.59;55.74
48386;BME280;34644;47.964;7.982;2024-01-25T03:35:22;97894.47;;;16.62;55.46
48386;BME280;34644;47.964;7.982;2024-01-25T03:42:22;97900.28;;;16.59;55.75
48386;BME280;34644;47.964;7.982;2024-01-25T03:49:22;97890.19;;;16.61;55.53
48386;BME280;34644;47.964;7.982;2024-01-25T03:56:23;97907.78;;;16.62;55.51
48386;BME280;34644;47.964;7.982;2024-01-25T04:03:23;97903.50;;;16.61;55.50
48386;BME280;34644;47.964;7.982;2024-01-25T04:10:23;97905.13;;;16.62;55.49
48386;BME280;34644;47.964;7.982;2024-01-25T04:17:23;97926.16;;;16.63;55.51
48386;BME280;34644;47.964;7.982;2024-01-25T04:24:24;97926.16;;;16.63;55.43
48386;BME280;34644;47.964;7.982;2024-01-25T04:31:24;97904.88;;;16.63;55.32
48386;BME280;34644;47.964;7.982;2024-01-25T04:38:24;97921.63;;;16.64;55.46
48386;BME280;34644;47.964;7.982;2024-01-25T04:45:24;97933.25;;;16.58;56.06
48386;BME280;34644;47.964;7.982;2024-01-25T04:52:25;97946.69;;;16.51;56.40
48386;BME280;34644;47.964;7.982;2024-01-25T04:59:25;97956.19;;;16.47;56.63
48386;BME280;34644;47.964;7.982;2024-01-25T05:06:26;97962.47;;;16.41;56.87
48386;BME280;34644;47.964;7.982;2024-01-25T05:13:27;97985.06;;;16.38;56.91
48386;BME280;34644;47.964;7.982;2024-01-25T05:20:27;97992.22;;;16.38;56.81
48386;BME280;34644;47.964;7.982;2024-01-25T05:27:34;97988.50;;;16.39;56.79
48386;BME280;34644;47.964;7.982;2024-01-25T05:34:34;98001.81;;;16.39;56.81
48386;BME280;34644;47.964;7.982;2024-01-25T05:41:34;98012.47;;;16.39;56.88
48386;BME280;34644;47.964;7.982;2024-01-25T05:48:35;98009.81;;;16.39;56.84
48386;BME280;34644;47.964;7.982;2024-01-25T05:55:35;98015.13;;;16.39;56.80
48386;BME280;34644;47.964;7.982;2024-01-25T06:02:36;98016.75;;;16.40;56.75
48386;BME280;34644;47.964;7.982;2024-01-25T06:09:36;98014.09;;;16.40;56.61
48386;BME280;34644;47.964;7.982;2024-01-25T06:16:37;98010.38;;;16.41;56.55
48386;BME280;34644;47.964;7.982;2024-01-25T06:23:37;98009.56;;;16.40;56.52
48386;BME280;34644;47.964;7.982;2024-01-25T06:30:37;98014.66;;;16.42;56.50
48386;BME280;34644;47.964;7.982;2024-01-25T06:37:38;98017.31;;;16.42;56.41
48386;BME280;34644;47.964;7.982;2024-01-25T06:44:38;98006.66;;;16.42;56.42
48386;BME280;34644;47.964;7.982;2024-01-25T06:51:39;98012.00;;;16.42;56.25
48386;BME280;34644;47.964;7.982;2024-01-25T06:58:39;98019.75;;;16.43;56.15
48386;BME280;34644;47.964;7.982;2024-01-25T07:05:39;98016.25;;;16.43;56.11
48386;BME280;34644;47.964;7.982;2024-01-25T07:12:40;98013.84;;;16.41;56.14
48386;BME280;34644;47.964;7.982;2024-01-25T07:19:40;98020.78;;;16.42;56.14
48386;BME280;34644;47.964;7.982;2024-01-25T07:26:40;98006.91;;;16.40;56.08
48386;BME280;34644;47.964;7.982;2024-01-25T07:33:40;98005.88;;;16.41;56.09
48386;BME280;34644;47.964;7.982;2024-01-25T07:40:41;98007.69;;;16.41;56.08
48386;BME280;34644;47.964;7.982;2024-01-25T07:47:42;98011.19;;;16.41;55.92
48386;BME280;34644;47.964;7.982;2024-01-25T07:54:43;98017.31;;;16.42;55.84
48386;BME280;34644;47.964;7.982;2024-01-25T08:01:43;98001.59;;;16.40;55.86
48386;BME280;34644;47.964;7.982;2024-01-25T08:08:43;97996.25;;;16.40;55.81
48386;BME280;34644;47.964;7.982;2024-01-25T08:15:43;98004.00;;;16.42;55.68
48386;BME280;34644;47.964;7.982;2024-01-25T08:22:44;98001.34;;;16.42;55.68
48386;BME280;34644;47.964;7.982;2024-01-25T08:29:44;97998.69;;;16.42;55.59
48386;BME280;34644;47.964;7.982;2024-01-25T08:36:45;98008.25;;;16.43;55.61
48386;BME280;34644;47.964;7.982;2024-01-25T08:43:45;98018.91;;;16.43;55.57
48386;BME280;34644;47.964;7.982;2024-01-25T08:50:46;98033.03;;;16.43;55.51
48386;BME280;34644;47.964;7.982;2024-01-25T08:57:47;98032.34;;;16.48;54.99
48386;BME280;34644;47.964;7.982;2024-01-25T09:04:47;98023.19;;;16.44;55.60
48386;BME280;34644;47.964;7.982;2024-01-25T09:11:48;98026.88;;;16.43;55.57
48386;BME280;34644;47.964;7.982;2024-01-25T09:18:48;98015.22;;;16.44;55.65
48386;BME280;34644;47.964;7.982;2024-01-25T09:25:48;98017.88;;;16.44;55.63
48386;BME280;34644;47.964;7.982;2024-01-25T09:32:49;98018.91;;;16.43;55.57
48386;BME280;34644;47.964;7.982;2024-01-25T09:39:49;98018.91;;;16.43;55.63
48386;BME280;34644;47.964;7.982;2024-01-25T09:46:50;98027.94;;;16.42;55.65
48386;BME280;34644;47.964;7.982;2024-01-25T09:53:51;98041.03;;;16.43;55.66
48386;BME280;34644;47.964;7.982;2024-01-25T10:00:53;98039.16;;;16.44;55.58
48386;BME280;34644;47.964;7.982;2024-01-25T10:07:56;98043.69;;;16.43;55.56
48386;BME280;34644;47.964;7.982;2024-01-25T10:15:00;98041.25;;;16.42;55.52
48386;BME280;34644;47.964;7.982;2024-01-25T10:22:01;98040.19;;;16.43;55.59
48386;BME280;34644;47.964;7.982;2024-01-25T10:29:01;98034.63;;;16.44;56.09
48386;BME280;34644;47.964;7.982;2024-01-25T10:36:03;98034.63;;;16.44;56.00
48386;BME280;34644;47.964;7.982;2024-01-25T10:43:03;98022.97;;;16.45;55.97
48386;BME280;34644;47.964;7.982;2024-01-25T10:50:04;98018.66;;;16.44;55.94
48386;BME280;34644;47.964;7.982;2024-01-25T10:57:04;98016.59;;;16.46;55.81
48386;BME280;34644;47.964;7.982;2024-01-25T11:04:15;98004.09;;;16.47;55.87
48386;BME280;34644;47.964;7.982;2024-01-25T11:11:16;97991.34;;;16.49;55.77
48386;BME280;34644;47.964;7.982;2024-01-25T11:18:18;97980.16;;;16.47;55.68
48386;BME280;34644;47.964;7.982;2024-01-25T11:25:21;97975.31;;;16.44;55.93
48386;BME280;34644;47.964;7.982;2024-01-25T11:32:21;97972.06;;;16.42;56.24
48386;BME280;34644;47.964;7.982;2024-01-25T11:39:22;97959.25;;;16.39;56.39
48386;BME280;34644;47.964;7.982;2024-01-25T11:46:22;97955.78;;;16.38;56.59
48386;BME280;34644;47.964;7.982;2024-01-25T11:53:22;97948.03;;;16.37;56.64
48386;BME280;34644;47.964;7.982;2024-01-25T12:00:23;97941.91;;;16.36;56.84
48386;BME280;34644;47.964;7.982;2024-01-25T12:07:23;97933.69;;;16.38;56.85
48386;BME280;34644;47.964;7.982;2024-01-25T12:14:23;97931.84;;;16.38;56.97
48386;BME280;34644;47.964;7.982;2024-01-25T12:21:24;97919.56;;;16.37;57.05
48386;BME280;34644;47.964;7.982;2024-01-25T12:28:26;97917.72;;;16.38;56.99
48386;BME280;34644;47.964;7.982;2024-01-25T12:35:26;97895.63;;;16.37;56.83
48386;BME280;34644;47.964;7.982;2024-01-25T12:42:26;97892.72;;;16.39;57.13
48386;BME280;34644;47.964;7.982;2024-01-25T12:49:26;97876.78;;;16.39;57.14
48386;BME280;34644;47.964;7.982;2024-01-25T12:56:27;97885.31;;;16.41;57.16
48386;BME280;34644;47.964;7.982;2024-01-25T13:03:27;97866.69;;;16.41;57.15
48386;BME280;34644;47.964;7.982;2024-01-25T13:10:27;97861.13;;;16.42;57.08
48386;BME280;34644;47.964;7.982;2024-01-25T13:17:28;97852.09;;;16.43;57.02
48386;BME280;34644;47.964;7.982;2024-01-25T13:24:28;97843.88;;;16.45;56.97
48386;BME280;34644;47.964;7.982;2024-01-25T13:31:28;97843.06;;;16.44;56.94
48386;BME280;34644;47.964;7.982;2024-01-25T13:38:29;97832.16;;;16.46;56.77
48386;BME280;34644;47.964;7.982;2024-01-25T13:45:29;97831.13;;;16.47;56.81
48386;BME280;34644;47.964;7.982;2024-01-25T13:52:29;97825.56;;;16.49;56.60
48386;BME280;34644;47.964;7.982;2024-01-25T13:59:29;97825.56;;;16.49;56.59
48386;BME280;34644;47.964;7.982;2024-01-25T14:06:30;97828.22;;;16.49;56.60
48386;BME280;34644;47.964;7.982;2024-01-25T14:13:30;97829.03;;;16.49;56.45
48386;BME280;34644;47.964;7.982;2024-01-25T14:20:30;97822.91;;;16.49;56.45
48386;BME280;34644;47.964;7.982;2024-01-25T14:27:30;97818.38;;;16.49;56.38
48386;BME280;34644;47.964;7.982;2024-01-25T14:34:31;97806.69;;;16.50;56.21
48386;BME280;34644;47.964;7.982;2024-01-25T14:41:31;97803.25;;;16.50;56.27
48386;BME280;34644;47.964;7.982;2024-01-25T14:48:33;97796.84;;;16.51;56.27
48386;BME280;34644;47.964;7.982;2024-01-25T14:55:33;97786.22;;;16.51;56.15
48386;BME280;34644;47.964;7.982;2024-01-25T15:02:33;97779.06;;;16.51;56.12
48386;BME280;34644;47.964;7.982;2024-01-25T15:09:34;97777.19;;;16.52;56.09
48386;BME280;34644;47.964;7.982;2024-01-25T15:16:37;97776.94;;;16.53;55.89
48386;BME280;34644;47.964;7.982;2024-01-25T15:23:37;97770.81;;;16.53;55.97
48386;BME280;34644;47.964;7.982;2024-01-25T15:30:37;97761.22;;;16.52;55.87
48386;BME280;34644;47.964;7.982;2024-01-25T15:37:38;97768.16;;;16.53;55.88
48386;BME280;34644;47.964;7.982;2024-01-25T15:44:38;97759.34;;;16.52;55.82
48386;BME280;34644;47.964;7.982;2024-01-25T15:51:39;97759.34;;;16.52;55.78
48386;BME280;34644;47.964;7.982;2024-01-25T15:58:39;97741.56;;;16.53;55.65
48386;BME280;34644;47.964;7.982;2024-01-25T16:05:40;97749.53;;;16.53;55.58
48386;BME280;34644;47.964;7.982;2024-01-25T16:12:40;97760.97;;;16.53;55.63
48386;BME280;34644;47.964;7.982;2024-01-25T16:19:41;97764.44;;;16.54;55.47
48386;BME280;34644;47.964;7.982;2024-01-25T16:26:41;97761.78;;;16.54;55.42
48386;BME280;34644;47.964;7.982;2024-01-25T16:33:41;97768.97;;;16.53;55.50
48386;BME280;34644;47.964;7.982;2024-01-25T16:40:42;97758.81;;;16.50;55.63
48386;BME280;34644;47.964;7.982;2024-01-25T16:47:42;97766.25;;;16.48;55.84
48386;BME280;34644;47.964;7.982;2024-01-25T16:54:42;97770.97;;;16.46;56.04
48386;BME280;34644;47.964;7.982;2024-01-25T17:01:43;97769.38;;;16.45;56.04
48386;BME280;34644;47.964;7.982;2024-01-25T17:08:43;97780.03;;;16.45;56.20
48386;BME280;34644;47.964;7.982;2024-01-25T17:15:46;97780.81;;;16.45;56.10
48386;BME280;34644;47.964;7.982;2024-01-25T17:22:46;97775.50;;;16.45;56.23
48386;BME280;34644;47.964;7.982;2024-01-25T17:29:47;97777.91;;;16.47;56.09
48386;BME280;34644;47.964;7.982;2024-01-25T17:36:47;97775.25;;;16.47;56.12
48386;BME280;34644;47.964;7.982;2024-01-25T17:43:47;97773.16;;;16.49;56.19
48386;BME280;34644;47.964;7.982;2024-01-25T17:50:48;97777.44;;;16.50;56.11
48386;BME280;34644;47.964;7.982;2024-01-25T17:57:48;97766.78;;;16.50;56.11
48386;BME280;34644;47.964;7.982;2024-01-25T18:04:48;97775.31;;;16.52;56.01
48386;BME280;34644;47.964;7.982;2024-01-25T18:11:49;97765.50;;;16.53;55.93
48386;BME280;34644;47.964;7.982;2024-01-25T18:18:49;97755.66;;;16.53;55.93
48386;BME280;34644;47.964;7.982;2024-01-25T18:25:50;97762.84;;;16.53;56.16
48386;BME280;34644;47.964;7.982;2024-01-25T18:32:50;97781.78;;;16.56;55.99
48386;BME280;34644;47.964;7.982;2024-01-25T18:39:51;97771.16;;;16.56;56.09
48386;BME280;34644;47.964;7.982;2024-01-25T18:46:51;97781.78;;;16.56;55.99
48386;BME280;34644;47.964;7.982;2024-01-25T18:53:52;97792.44;;;16.56;55.93
48386;BME280;34644;47.964;7.982;2024-01-25T19:00:52;97787.09;;;16.56;55.79
48386;BME280;34644;47.964;7.982;2024-01-25T19:07:53;97777.25;;;16.57;55.83
48386;BME280;34644;47.964;7.982;2024-01-25T19:14:54;97782.59;;;16.57;55.76
48386;BME280;34644;47.964;7.982;2024-01-25T19:21:54;97778.31;;;16.56;55.69
48386;BME280;34644;47.964;7.982;2024-01-25T19:28:55;97786.06;;;16.57;55.62
48386;BME280;34644;47.964;7.982;2024-01-25T19:35:55;97783.97;;;16.59;55.63
48386;BME280;34644;47.964;7.982;2024-01-25T19:42:56;97773.56;;;16.58;55.61
48386;BME280;34644;47.964;7.982;2024-01-25T19:49:56;97774.34;;;16.58;55.46
48386;BME280;34644;47.964;7.982;2024-01-25T19:56:56;97777.59;;;16.60;55.51
48386;BME280;34644;47.964;7.982;2024-01-25T20:03:57;97771.44;;;16.60;55.37
48386;BME280;34644;47.964;7.982;2024-01-25T20:10:57;97749.13;;;16.61;55.42
48386;BME280;34644;47.964;7.982;2024-01-25T20:17:58;97745.66;;;16.60;55.30
48386;BME280;34644;47.964;7.982;2024-01-25T20:24:59;97773.31;;;16.59;55.32
48386;BME280;34644;47.964;7.982;2024-01-25T20:31:59;97785.59;;;16.60;55.17
48386;BME280;34644;47.964;7.982;2024-01-25T20:39:00;97800.72;;;16.60;55.13
48386;BME280;34644;47.964;7.982;2024-01-25T20:46:01;97794.38;;;16.61;55.14
48386;BME280;34644;47.964;7.982;2024-01-25T20:53:01;97787.19;;;16.61;55.14
48386;BME280;34644;47.964;7.982;2024-01-25T21:00:01;97784.50;;;16.61;54.94
48386;BME280;34644;47.964;7.982;2024-01-25T21:07:02;97771.22;;;16.61;54.97
48386;BME280;34644;47.964;7.982;2024-01-25T21:14:03;97773.88;;;16.61;54.99
48386;BME280;34644;47.964;7.982;2024-01-25T21:21:03;97764.84;;;16.62;54.91
48386;BME280;34644;47.964;7.982;2024-01-25T21:28:03;97774.44;;;16.63;54.98
48386;BME280;34644;47.964;7.982;2024-01-25T21:35:04;97766.47;;;16.63;54.91
48386;BME280;34644;47.964;7.982;2024-01-25T21:42:05;97761.16;;;16.63;54.95
48386;BME280;34644;47.964;7.982;2024-01-25T21:49:05;97777.13;;;16.63;54.77
48386;BME280;34644;47.964;7.982;2024-01-25T21:56:05;97774.44;;;16.63;54.74
48386;BME280;34644;47.964;7.982;2024-01-25T22:03:06;97773.38;;;16.64;54.65
48386;BME280;34644;47.964;7.982;2024-01-25T22:10:07;97765.16;;;16.66;54.71
48386;BME280;34644;47.964;7.982;2024-01-25T22:17:07;97762.50;;;16.66;54.77
48386;BME280;34644;47.964;7.982;2024-01-25T22:24:07;97763.28;;;16.67;54.60
48386;BME280;34644;47.964;7.982;2024-01-25T22:31:09;97757.72;;;16.68;54.54
48386;BME280;34644;47.964;7.982;2024-01-25T22:38:09;97749.75;;;16.68;54.48
48386;BME280;34644;47.964;7.982;2024-01-25T22:45:09;97754.03;;;16.69;54.53
48386;BME280;34644;47.964;7.982;2024-01-25T22:52:09;97738.84;;;16.70;54.25
48386;BME280;34644;47.964;7.982;2024-01-25T22:59:11;97752.75;;;16.72;54.43
48386;BME280;34644;47.964;7.982;2024-01-25T23:06:12;97757.00;;;16.73;54.32
48386;BME280;34644;47.964;7.982;2024-01-25T23:13:12;97761.53;;;16.72;54.24
48386;BME280;34644;47.964;7.982;2024-01-25T23:20:16;97771.13;;;16.73;54.10
48386;BME280;34644;47.964;7.982;2024-01-25T23:27:16;97781.28;;;16.76;54.15
48386;BME280;34644;47.964;7.982;2024-01-25T23:34:17;97769.81;;;16.76;54.11
48386;BME280;34644;47.964;7.982;2024-01-25T23:41:17;97776.28;;;16.80;53.85
48386;BME280;34644;47.964;7.982;2024-01-25T23:48:17;97773.59;;;16.80;53.88
48386;BME280;34644;47.964;7.982;2024-01-25T23:55:18;97786.69;;;16.81;53.83
